Observation data for Andrews on 05/24/2020      Previous  Date  Next       Current Mesonet Observations  Soil Data  Daily Summary Page  Observations in Plain Language
KANS 240500Z 17006KT 20/11 A2986 RMK A01 T02030106  RH  056%=      5-min Rain = 0
KANS 240505Z 17006KT 20/11 A2986 RMK A01 T02020107  RH  056%=      5-min Rain = 0
KANS 240510Z 18006KT 20/11 A2987 RMK A01 T02010108  RH  057%=      5-min Rain = 0
KANS 240515Z 18006KT 20/11 A2987 RMK A01 T01990108  RH  058%=      5-min Rain = 0
KANS 240520Z 18006KT 20/11 A2987 RMK A01 T02000110  RH  058%=      5-min Rain = 0
KANS 240525Z 17006KT 20/11 A2987 RMK A01 T02010111  RH  058%=      5-min Rain = 0
KANS 240530Z 17007KT 20/11 A2986 RMK A01 T02020112  RH  058%=      5-min Rain = 0
KANS 240535Z 17006KT 20/11 A2986 RMK A01 T02010112  RH  058%=      5-min Rain = 0
KANS 240540Z 17006KT 20/11 A2986 RMK A01 T02000113  RH  059%=      5-min Rain = 0
KANS 240545Z 17006KT 20/11 A2986 RMK A01 T01990114  RH  060%=      5-min Rain = 0
KANS 240550Z 17006KT 20/12 A2986 RMK A01 T01990116  RH  061%=      5-min Rain = 0
KANS 240555Z 14005KT 20/12 A2987 RMK A01 T02000118  RH  061%=      5-min Rain = 0
KANS 240600Z 09006KT 20/12 A2988 RMK A01 T02020120  RH  062%=      5-min Rain = 0
KANS 240605Z 06008KT 20/12 A2988 RMK A01 T02020121  RH  062%=      5-min Rain = 0
KANS 240610Z 08009KT 20/12 A2988 RMK A01 T02040123  RH  062%=      5-min Rain = 0
KANS 240615Z 09010KT 21/13 A2988 RMK A01 T02090128  RH  062%=      5-min Rain = 0
KANS 240620Z 11010KT 21/13 A2988 RMK A01 T02130128  RH  061%=      5-min Rain = 0
KANS 240625Z 13011G16KT 22/13 A2987 RMK A01 T02160126  RH  059%=      5-min Rain = 0
KANS 240630Z 14012KT 22/12 A2987 RMK A01 T02170124  RH  057%=      5-min Rain = 0
KANS 240635Z 15010G16KT 22/12 A2986 RMK A01 T02170122  RH  057%=      5-min Rain = 0
KANS 240640Z 14010KT 22/12 A2986 RMK A01 T02160120  RH  056%=      5-min Rain = 0
KANS 240645Z 13010KT 22/12 A2986 RMK A01 T02150119  RH  056%=      5-min Rain = 0
KANS 240650Z 11008KT 21/12 A2987 RMK A01 T02130118  RH  057%=      5-min Rain = 0
KANS 240655Z 11008KT 21/12 A2987 RMK A01 T02120117  RH  057%=      5-min Rain = 0
KANS 240700Z 11007KT 21/12 A2987 RMK A01 T02100116  RH  057%=      5-min Rain = 0
KANS 240705Z 13007G12KT 21/12 A2987 RMK A01 T02100115  RH  057%=      5-min Rain = 0
KANS 240710Z 14007KT 21/11 A2987 RMK A01 T02100114  RH  056%=      5-min Rain = 0
KANS 240715Z 15009KT 21/11 A2986 RMK A01 T02100112  RH  056%=      5-min Rain = 0
KANS 240720Z 15008KT 21/11 A2986 RMK A01 T02110111  RH  055%=      5-min Rain = 0
KANS 240725Z 14007KT 21/11 A2986 RMK A01 T02090110  RH  055%=      5-min Rain = 0
KANS 240730Z 13006KT 21/11 A2987 RMK A01 T02080110  RH  055%=      5-min Rain = 0
KANS 240735Z 12006KT 21/11 A2987 RMK A01 T02060109  RH  056%=      5-min Rain = 0
KANS 240740Z 13005KT 20/11 A2987 RMK A01 T02040109  RH  056%=      5-min Rain = 0
KANS 240745Z 15006KT 20/11 A2986 RMK A01 T02030108  RH  056%=      5-min Rain = 0
KANS 240750Z 16007KT 20/11 A2986 RMK A01 T02020108  RH  056%=      5-min Rain = 0
KANS 240755Z 16007KT 20/11 A2986 RMK A01 T02030107  RH  056%=      5-min Rain = 0
KANS 240800Z 16009KT 20/11 A2985 RMK A01 T02030108  RH  056%=      5-min Rain = 0
KANS 240805Z 16007KT 20/11 A2985 RMK A01 T02040108  RH  056%=      5-min Rain = 0
KANS 240810Z 15007KT 20/11 A2985 RMK A01 T02030108  RH  056%=      5-min Rain = 0
KANS 240815Z 14006KT 20/11 A2986 RMK A01 T02020108  RH  057%=      5-min Rain = 0
KANS 240820Z 12004KT 20/11 A2986 RMK A01 T02010108  RH  057%=      5-min Rain = 0
KANS 240825Z 10004KT 20/11 A2986 RMK A01 T02000108  RH  058%=      5-min Rain = 0
KANS 240830Z 09004KT 20/11 A2986 RMK A01 T01960108  RH  059%=      5-min Rain = 0
KANS 240835Z 10005KT 19/11 A2986 RMK A01 T01930109  RH  060%=      5-min Rain = 0
KANS 240840Z 12006KT 19/11 A2986 RMK A01 T01930109  RH  060%=      5-min Rain = 0
KANS 240845Z 14006KT 19/11 A2986 RMK A01 T01930109  RH  060%=      5-min Rain = 0
KANS 240850Z 15006KT 19/11 A2985 RMK A01 T01910109  RH  061%=      5-min Rain = 0
KANS 240855Z 15005KT 19/11 A2985 RMK A01 T01890109  RH  062%=      5-min Rain = 0
KANS 240900Z 15005KT 19/11 A2985 RMK A01 T01870109  RH  063%=      5-min Rain = 0
KANS 240905Z 13005KT 19/11 A2985 RMK A01 T01850109  RH  063%=      5-min Rain = 0
KANS 240910Z 12003KT 18/11 A2986 RMK A01 T01830109  RH  064%=      5-min Rain = 0
KANS 240915Z 11003KT 18/11 A2986 RMK A01 T01830110  RH  064%=      5-min Rain = 0
KANS 240920Z 12003KT 18/11 A2986 RMK A01 T01820110  RH  065%=      5-min Rain = 0
KANS 240925Z 13004KT 18/11 A2986 RMK A01 T01810111  RH  066%=      5-min Rain = 0
KANS 240930Z 15005KT 18/11 A2985 RMK A01 T01780111  RH  067%=      5-min Rain = 0
KANS 240935Z 16005KT 18/11 A2985 RMK A01 T01750111  RH  068%=      5-min Rain = 0
KANS 240940Z 16005KT 17/11 A2985 RMK A01 T01730112  RH  069%=      5-min Rain = 0
KANS 240945Z 15005KT 17/11 A2985 RMK A01 T01730112  RH  070%=      5-min Rain = 0
KANS 240950Z 15005KT 17/11 A2985 RMK A01 T01730113  RH  070%=      5-min Rain = 0
KANS 240955Z 15005KT 17/11 A2985 RMK A01 T01730113  RH  071%=      5-min Rain = 0
KANS 241000Z 15005KT 17/11 A2985 RMK A01 T01730114  RH  071%=      5-min Rain = 0
KANS 241005Z 16004KT 17/11 A2985 RMK A01 T01730114  RH  071%=      5-min Rain = 0
KANS 241010Z 15006KT 17/11 A2985 RMK A01 T01730113  RH  071%=      5-min Rain = 0
KANS 241015Z 15006KT 18/11 A2985 RMK A01 T01750113  RH  070%=      5-min Rain = 0
KANS 241020Z 15005KT 17/11 A2985 RMK A01 T01740112  RH  069%=      5-min Rain = 0
KANS 241025Z 15006KT 17/11 A2985 RMK A01 T01730112  RH  070%=      5-min Rain = 0
KANS 241030Z 16006KT 17/11 A2985 RMK A01 T01730111  RH  070%=      5-min Rain = 0
KANS 241035Z 16007KT 17/11 A2985 RMK A01 T01730111  RH  069%=      5-min Rain = 0
KANS 241040Z 16007KT 17/11 A2985 RMK A01 T01740111  RH  069%=      5-min Rain = 0
KANS 241045Z 16006KT 17/11 A2985 RMK A01 T01740110  RH  069%=      5-min Rain = 0
KANS 241050Z 14005KT 17/11 A2985 RMK A01 T01720110  RH  069%=      5-min Rain = 0
KANS 241055Z 14004KT 17/11 A2985 RMK A01 T01700110  RH  070%=      5-min Rain = 0
KANS 241100Z 16004KT 17/11 A2985 RMK A01 T01690110  RH  070%=      5-min Rain = 0
KANS 241105Z 17005KT 17/11 A2985 RMK A01 T01670109  RH  071%=      5-min Rain = 0
KANS 241110Z 16004KT 17/11 A2985 RMK A01 T01660109  RH  072%=      5-min Rain = 0
KANS 241115Z 13005KT 16/11 A2986 RMK A01 T01640109  RH  073%=      5-min Rain = 0
KANS 241120Z 13004KT 16/11 A2986 RMK A01 T01620109  RH  073%=      5-min Rain = 0
KANS 241125Z 14004KT 16/11 A2985 RMK A01 T01620110  RH  073%=      5-min Rain = 0
KANS 241130Z 16004KT 16/11 A2985 RMK A01 T01600109  RH  074%=      5-min Rain = 0
KANS 241135Z 15004KT 16/11 A2985 RMK A01 T01580110  RH  075%=      5-min Rain = 0
KANS 241140Z 12005KT 16/11 A2985 RMK A01 T01580109  RH  075%=      5-min Rain = 0
KANS 241145Z 12004KT 16/11 A2985 RMK A01 T01570109  RH  075%=      5-min Rain = 0
KANS 241150Z 13005KT 16/11 A2985 RMK A01 T01580109  RH  075%=      5-min Rain = 0
KANS 241155Z 14005KT 16/11 A2985 RMK A01 T01570108  RH  075%=      5-min Rain = 0
KANS 241200Z 14006KT 16/11 A2985 RMK A01 T01580108  RH  075%=      5-min Rain = 0
KANS 241205Z 14005KT 16/11 A2985 RMK A01 T01590108  RH  074%=      5-min Rain = 0
KANS 241210Z 13004KT 16/11 A2986 RMK A01 T01600109  RH  074%=      5-min Rain = 0
KANS 241215Z 11005KT 16/11 A2986 RMK A01 T01630109  RH  073%=      5-min Rain = 0
KANS 241220Z 11004KT 16/11 A2986 RMK A01 T01640110  RH  072%=      5-min Rain = 0
KANS 241225Z 12004KT 17/11 A2986 RMK A01 T01660110  RH  072%=      5-min Rain = 0
KANS 241230Z 13005KT 17/11 A2986 RMK A01 T01680110  RH  071%=      5-min Rain = 0
KANS 241235Z 12005KT 17/11 A2986 RMK A01 T01710112  RH  071%=      5-min Rain = 0
KANS 241240Z 12005KT 17/11 A2986 RMK A01 T01740112  RH  070%=      5-min Rain = 0
KANS 241245Z 13005KT 18/11 A2985 RMK A01 T01760113  RH  069%=      5-min Rain = 0
KANS 241250Z 15005KT 18/12 A2985 RMK A01 T01790116  RH  069%=      5-min Rain = 0
KANS 241255Z 15007KT 18/12 A2985 RMK A01 T01820119  RH  069%=      5-min Rain = 0
KANS 241300Z 15007KT 18/12 A2985 RMK A01 T01840122  RH  070%=      5-min Rain = 0
KANS 241305Z 15008KT 19/13 A2985 RMK A01 T01880127  RH  070%=      5-min Rain = 0
KANS 241310Z 16007KT 19/13 A2985 RMK A01 T01940133  RH  071%=      5-min Rain = 0
KANS 241315Z 16011KT 20/14 A2985 RMK A01 T01990141  RH  072%=      5-min Rain = 0
KANS 241320Z 17011G16KT 20/15 A2985 RMK A01 T02030145  RH  072%=      5-min Rain = 0
KANS 241325Z 17013G21KT 21/15 A2984 RMK A01 T02060148  RH  072%=      5-min Rain = 0
KANS 241330Z 18012G17KT 21/15 A2984 RMK A01 T02080151  RH  073%=      5-min Rain = 0
KANS 241335Z 18017G25KT 21/15 A2984 RMK A01 T02100152  RH  073%=      5-min Rain = 0
KANS 241340Z 18016G21KT 21/15 A2984 RMK A01 T02120153  RH  072%=      5-min Rain = 0
KANS 241345Z 18014G20KT 22/15 A2984 RMK A01 T02150153  RH  071%=      5-min Rain = 0
KANS 241350Z 18013G19KT 22/15 A2984 RMK A01 T02170153  RH  070%=      5-min Rain = 0
KANS 241355Z 18013G20KT 22/15 A2984 RMK A01 T02190152  RH  069%=      5-min Rain = 0
KANS 241400Z 18013KT 22/15 A2984 RMK A01 T02210152  RH  068%=      5-min Rain = 0
KANS 241405Z 18013G19KT 22/15 A2984 RMK A01 T02230152  RH  067%=      5-min Rain = 0
KANS 241410Z 18015KT 22/15 A2984 RMK A01 T02230151  RH  067%=      5-min Rain = 0
KANS 241415Z 18014G20KT 22/15 A2984 RMK A01 T02240150  RH  066%=      5-min Rain = 0
KANS 241420Z 18013G18KT 23/15 A2984 RMK A01 T02280151  RH  065%=      5-min Rain = 0
KANS 241425Z 18012KT 23/15 A2985 RMK A01 T02300151  RH  064%=      5-min Rain = 0
KANS 241430Z 17011G17KT 23/15 A2985 RMK A01 T02330151  RH  063%=      5-min Rain = 0
KANS 241435Z 18011G18KT 24/15 A2985 RMK A01 T02360150  RH  061%=      5-min Rain = 0
KANS 241440Z 17011G17KT 24/15 A2985 RMK A01 T02360151  RH  062%=      5-min Rain = 0
KANS 241445Z 18012G17KT 24/15 A2986 RMK A01 T02390150  RH  060%=      5-min Rain = 0
KANS 241450Z 19011G16KT 24/15 A2986 RMK A01 T02380149  RH  060%=      5-min Rain = 0
KANS 241455Z 17010G15KT 24/15 A2986 RMK A01 T02430151  RH  059%=      5-min Rain = 0
KANS 241500Z 18011G16KT 24/15 A2986 RMK A01 T02440149  RH  058%=      5-min Rain = 0
KANS 241505Z 18011G16KT 24/15 A2985 RMK A01 T02440149  RH  058%=      5-min Rain = 0
KANS 241510Z 19011KT 25/15 A2985 RMK A01 T02450147  RH  057%=      5-min Rain = 0
KANS 241515Z 18011KT 25/15 A2985 RMK A01 T02480147  RH  056%=      5-min Rain = 0
KANS 241520Z 18011G17KT 25/14 A2985 RMK A01 T02480144  RH  055%=      5-min Rain = 0
KANS 241525Z 18009KT 25/14 A2985 RMK A01 T02500144  RH  054%=      5-min Rain = 0
KANS 241530Z 18009KT 26/14 A2985 RMK A01 T02550141  RH  052%=      5-min Rain = 0
KANS 241535Z 20008KT 26/14 A2984 RMK A01 T02550142  RH  052%=      5-min Rain = 0
KANS 241540Z 21008KT 26/14 A2984 RMK A01 T02580137  RH  049%=      5-min Rain = 0
KANS 241545Z 19009KT 26/14 A2984 RMK A01 T02600137  RH  049%=      5-min Rain = 0
KANS 241550Z 20008KT 26/13 A2984 RMK A01 T02580133  RH  048%=      5-min Rain = 0
KANS 241555Z 20007KT 26/13 A2984 RMK A01 T02610130  RH  046%=      5-min Rain = 0
KANS 241600Z 19007KT 27/14 A2984 RMK A01 T02660135  RH  046%=      5-min Rain = 0
KANS 241605Z 19007G12KT 27/13 A2983 RMK A01 T02680131  RH  045%=      5-min Rain = 0
KANS 241610Z 18006KT 27/13 A2983 RMK A01 T02680130  RH  044%=      5-min Rain = 0
KANS 241615Z 20007G12KT 27/13 A2983 RMK A01 T02730129  RH  043%=      5-min Rain = 0
KANS 241620Z 21007KT 27/13 A2983 RMK A01 T02720128  RH  043%=      5-min Rain = 0
KANS 241625Z 22005KT 28/13 A2983 RMK A01 T02790127  RH  041%=      5-min Rain = 0
KANS 241630Z 20005G10KT 28/13 A2983 RMK A01 T02790126  RH  040%=      5-min Rain = 0
KANS 241635Z 20006G11KT 28/13 A2983 RMK A01 T02840125  RH  039%=      5-min Rain = 0
KANS 241640Z 21007KT 28/12 A2983 RMK A01 T02840124  RH  039%=      5-min Rain = 0
KANS 241645Z 18007G13KT 29/13 A2983 RMK A01 T02870125  RH  038%=      5-min Rain = 0
KANS 241650Z 18006G12KT 29/12 A2983 RMK A01 T02890117  RH  036%=      5-min Rain = 0
KANS 241655Z 21005KT 29/11 A2983 RMK A01 T02890111  RH  034%=      5-min Rain = 0
KANS 241700Z 22005G11KT 29/11 A2983 RMK A01 T02920111  RH  034%=      5-min Rain = 0
KANS 241705Z 21004KT 29/11 A2983 RMK A01 T02930112  RH  034%=      5-min Rain = 0
KANS 241710Z 19006G11KT 30/11 A2982 RMK A01 T02980110  RH  032%=      5-min Rain = 0
KANS 241715Z 22007G13KT 30/10 A2982 RMK A01 T03010100  RH  030%=      5-min Rain = 0
KANS 241720Z 20005KT 30/10 A2982 RMK A01 T02980096  RH  029%=      5-min Rain = 0
KANS 241725Z 21005G11KT 30/10 A2982 RMK A01 T03010096  RH  029%=      5-min Rain = 0
KANS 241730Z 18006KT 31/09 A2982 RMK A01 T03050093  RH  028%=      5-min Rain = 0
KANS 241735Z 25007KT 31/09 A2982 RMK A01 T03120091  RH  026%=      5-min Rain = 0
KANS 241740Z 26006KT 31/09 A2982 RMK A01 T03130085  RH  025%=      5-min Rain = 0
KANS 241745Z 32005KT 31/08 A2982 RMK A01 T03140075  RH  023%=      5-min Rain = 0
KANS 241750Z 29003KT 31/08 A2982 RMK A01 T03100077  RH  024%=      5-min Rain = 0
KANS 241755Z 27005G11KT 31/08 A2982 RMK A01 T03140081  RH  024%=      5-min Rain = 0
KANS 241800Z 20004G9KT 31/08 A2982 RMK A01 T03120077  RH  024%=      5-min Rain = 0
KANS 241805Z 25005KT 31/08 A2981 RMK A01 T03120077  RH  024%=      5-min Rain = 0
KANS 241810Z 24003KT 31/08 A2981 RMK A01 T03140078  RH  024%=      5-min Rain = 0
KANS 241815Z 25004KT 32/07 A2981 RMK A01 T03210072  RH  022%=      5-min Rain = 0
KANS 241820Z 12002KT 32/07 A2981 RMK A01 T03160067  RH  022%=      5-min Rain = 0
KANS 241825Z 33002KT 32/07 A2981 RMK A01 T03230072  RH  022%=      5-min Rain = 0
KANS 241830Z 17002KT 33/07 A298 RMK A01 T03300070  RH  021%=      5-min Rain = 0
KANS 241835Z 23005KT 33/06 A298 RMK A01 T03250062  RH  020%=      5-min Rain = 0
KANS 241840Z 25005KT 33/06 A298 RMK A01 T03250057  RH  019%=      5-min Rain = 0
KANS 241845Z 23004KT 32/05 A298 RMK A01 T03230054  RH  019%=      5-min Rain = 0
KANS 241850Z 28004KT 32/06 A298 RMK A01 T03240058  RH  019%=      5-min Rain = 0
KANS 241855Z 28004KT 32/05 A298 RMK A01 T03240054  RH  019%=      5-min Rain = 0
KANS 241900Z 31003KT 33/06 A2979 RMK A01 T03250056  RH  019%=      5-min Rain = 0
KANS 241905Z 29005KT 33/06 A2979 RMK A01 T03290055  RH  019%=      5-min Rain = 0
KANS 241910Z 19002KT 33/05 A2979 RMK A01 T03250052  RH  018%=      5-min Rain = 0
KANS 241915Z 13004KT 33/05 A2979 RMK A01 T03280052  RH  018%=      5-min Rain = 0
KANS 241920Z 10003KT 33/05 A2978 RMK A01 T03290053  RH  018%=      5-min Rain = 0
KANS 241925Z 07005KT 34/05 A2978 RMK A01 T03360054  RH  018%=      5-min Rain = 0
KANS 241930Z 07004KT 34/05 A2978 RMK A01 T03360052  RH  017%=      5-min Rain = 0
KANS 241935Z 16004G10KT 34/04 A2978 RMK A01 T03370040  RH  016%=      5-min Rain = 0
KANS 241940Z 06003KT 34/03 A2977 RMK A01 T03370032  RH  015%=      5-min Rain = 0
KANS 241945Z 05003KT 35/03 A2976 RMK A01 T03460031  RH  014%=      5-min Rain = 0
KANS 241950Z 19005KT 34/03 A2976 RMK A01 T03440029  RH  014%=      5-min Rain = 0
KANS 241955Z 20005G10KT 35/03 A2976 RMK A01 T03470026  RH  014%=      5-min Rain = 0
KANS 242000Z 21002KT 35/03 A2976 RMK A01 T03470025  RH  013%=      5-min Rain = 0
KANS 242005Z 28002G8KT 35/03 A2975 RMK A01 T03470025  RH  013%=      5-min Rain = 0
KANS 242010Z 32005G11KT 35/03 A2975 RMK A01 T03480026  RH  014%=      5-min Rain = 0
KANS 242015Z 16005G10KT 35/02 A2975 RMK A01 T03490024  RH  013%=      5-min Rain = 0
KANS 242020Z 18004G11KT 34/02 A2975 RMK A01 T03400023  RH  014%=      5-min Rain = 0
KANS 242025Z 20005KT 34/02 A2974 RMK A01 T03360023  RH  014%=      5-min Rain = 0
KANS 242030Z 16003KT 34/02 A2974 RMK A01 T03390020  RH  014%=      5-min Rain = 0
KANS 242035Z 30010G16KT 34/02 A2973 RMK A01 T03430021  RH  013%=      5-min Rain = 0
KANS 242040Z 26007KT 34/03 A2973 RMK A01 T03420025  RH  014%=      5-min Rain = 0
KANS 242045Z 26005KT 34/02 A2972 RMK A01 T03360023  RH  014%=      5-min Rain = 0
KANS 242050Z 25005KT 34/02 A2972 RMK A01 T03350017  RH  014%=      5-min Rain = 0
KANS 242055Z 30007KT 34/01 A2971 RMK A01 T03360014  RH  013%=      5-min Rain = 0
KANS 242100Z 29004KT 33/01 A2971 RMK A01 T03340012  RH  013%=      5-min Rain = 0
KANS 242105Z 22003KT 33/01 A2971 RMK A01 T03330014  RH  013%=      5-min Rain = 0
KANS 242110Z 26002KT 34/01 A2971 RMK A01 T03350012  RH  013%=      5-min Rain = 0
KANS 242115Z 25001KT 34/01 A297 RMK A01 T03390009  RH  013%=      5-min Rain = 0
KANS 242120Z 08002KT 34/01 A297 RMK A01 T03430011  RH  012%=      5-min Rain = 0
KANS 242125Z 19005G12KT 34/01 A2969 RMK A01 T03440010  RH  012%=      5-min Rain = 0
KANS 242130Z 22007G12KT 34/M00 A2969 RMK A01 T03361001  RH  012%=      5-min Rain = 0
KANS 242135Z 24007KT 33/M01 A2969 RMK A01 T03341006  RH  011%=      5-min Rain = 0
KANS 242140Z 23008KT 34/M01 A2969 RMK A01 T03361006  RH  011%=      5-min Rain = 0
KANS 242145Z 22007KT 33/M01 A2969 RMK A01 T03311005  RH  012%=      5-min Rain = 0
KANS 242150Z 21007KT 33/M01 A2968 RMK A01 T03301006  RH  012%=      5-min Rain = 0
KANS 242155Z 20005KT 33/M00 A2968 RMK A01 T03301001  RH  012%=      5-min Rain = 0
KANS 242200Z 22005KT 33/00 A2968 RMK A01 T03290001  RH  012%=      5-min Rain = 0
KANS 242205Z 18005KT 33/00 A2968 RMK A01 T03280003  RH  013%=      5-min Rain = 0
KANS 242210Z 15006KT 33/M00 A2968 RMK A01 T03271004  RH  012%=      5-min Rain = 0
KANS 242215Z 21001KT 33/M01 A2968 RMK A01 T03271008  RH  012%=      5-min Rain = 0
KANS 242220Z 13001KT 33/M01 A2968 RMK A01 T03271009  RH  012%=      5-min Rain = 0
KANS 242225Z 16003KT 33/00 A2968 RMK A01 T03260003  RH  013%=      5-min Rain = 0
KANS 242230Z 17004KT 32/00 A2968 RMK A01 T03220004  RH  013%=      5-min Rain = 0
KANS 242235Z 17004G9KT 32/00 A2967 RMK A01 T03210001  RH  013%=      5-min Rain = 0
KANS 242240Z 19006KT 32/M00 A2967 RMK A01 T03201002  RH  013%=      5-min Rain = 0
KANS 242245Z 17009KT 32/01 A2968 RMK A01 T03180006  RH  014%=      5-min Rain = 0
KANS 242250Z 16013G19KT 32/02 A2968 RMK A01 T03170016  RH  015%=      5-min Rain = 0
KANS 242255Z 16020G27KT 30/07 A2968 RMK A01 T03040072  RH  024%=      5-min Rain = 0
KANS 242300Z 16018G25KT 29/09 A2968 RMK A01 T02900089  RH  029%=      5-min Rain = 0
KANS 242305Z 15015G23KT 29/09 A2968 RMK A01 T02870089  RH  030%=      5-min Rain = 0
KANS 242310Z 16014G22KT 29/09 A2968 RMK A01 T02850085  RH  029%=      5-min Rain = 0
KANS 242315Z 16018G26KT 28/07 A2968 RMK A01 T02820072  RH  027%=      5-min Rain = 0
KANS 242320Z 16014G20KT 28/07 A2968 RMK A01 T02810071  RH  027%=      5-min Rain = 0
KANS 242325Z 16015G24KT 28/07 A2968 RMK A01 T02790074  RH  028%=      5-min Rain = 0
KANS 242330Z 16018G26KT 28/08 A2968 RMK A01 T02780075  RH  028%=      5-min Rain = 0
KANS 242335Z 15018G25KT 28/07 A2969 RMK A01 T02770073  RH  028%=      5-min Rain = 0
KANS 242340Z 15016G21KT 28/07 A2969 RMK A01 T02760073  RH  028%=      5-min Rain = 0
KANS 242345Z 14016G26KT 28/07 A2969 RMK A01 T02760065  RH  027%=      5-min Rain = 0
KANS 242350Z 14018G25KT 28/06 A2969 RMK A01 T02750057  RH  026%=      5-min Rain = 0
KANS 242355Z 13014G19KT 27/05 A2969 RMK A01 T02740054  RH  025%=      5-min Rain = 0
KANS 250000Z 13014G24KT 27/05 A2968 RMK A01 T02730048  RH  024%=      5-min Rain = 0
KANS 250005Z 13013G19KT 27/04 A2968 RMK A01 T02720043  RH  024%=      5-min Rain = 0
KANS 250010Z 13014G20KT 27/04 A2968 RMK A01 T02730039  RH  023%=      5-min Rain = 0
KANS 250015Z 13014G24KT 27/04 A2968 RMK A01 T02730038  RH  022%=      5-min Rain = 0
KANS 250020Z 13012G18KT 27/04 A2968 RMK A01 T02720038  RH  023%=      5-min Rain = 0
KANS 250025Z 12012G19KT 27/04 A2968 RMK A01 T02720038  RH  023%=      5-min Rain = 0
KANS 250030Z 12011G20KT 27/04 A2968 RMK A01 T02720037  RH  022%=      5-min Rain = 0
KANS 250035Z 12011KT 27/04 A2968 RMK A01 T02710037  RH  023%=      5-min Rain = 0
KANS 250040Z 12010G15KT 27/04 A2968 RMK A01 T02710037  RH  023%=      5-min Rain = 0
KANS 250045Z 12010G15KT 27/04 A2968 RMK A01 T02700035  RH  022%=      5-min Rain = 0
KANS 250050Z 12009G14KT 27/03 A2968 RMK A01 T02700034  RH  022%=      5-min Rain = 0
KANS 250055Z 12010KT 27/04 A2968 RMK A01 T02680036  RH  023%=      5-min Rain = 0
KANS 250100Z 13009G14KT 27/04 A2968 RMK A01 T02660037  RH  023%=      5-min Rain = 0
KANS 250105Z 13010KT 27/04 A2968 RMK A01 T02660037  RH  023%=      5-min Rain = 0
KANS 250110Z 12010G15KT 27/04 A2968 RMK A01 T02660036  RH  023%=      5-min Rain = 0
KANS 250115Z 12008G13KT 27/04 A2969 RMK A01 T02660037  RH  023%=      5-min Rain = 0
KANS 250120Z 13008KT 27/04 A2969 RMK A01 T02650038  RH  024%=      5-min Rain = 0
KANS 250125Z 12007KT 26/04 A2969 RMK A01 T02640038  RH  024%=      5-min Rain = 0
KANS 250130Z 12007KT 26/04 A2968 RMK A01 T02640038  RH  024%=      5-min Rain = 0
KANS 250135Z 13007KT 26/04 A2968 RMK A01 T02620039  RH  024%=      5-min Rain = 0
KANS 250140Z 14006KT 26/04 A2969 RMK A01 T02600039  RH  024%=      5-min Rain = 0
KANS 250145Z 13005KT 26/04 A2969 RMK A01 T02580038  RH  025%=      5-min Rain = 0
KANS 250150Z 13004KT 26/04 A2969 RMK A01 T02560037  RH  025%=      5-min Rain = 0
KANS 250155Z 14003KT 25/04 A2969 RMK A01 T02530038  RH  025%=      5-min Rain = 0
KANS 250200Z 14003KT 25/04 A2969 RMK A01 T02490038  RH  026%=      5-min Rain = 0
KANS 250205Z 14004KT 25/04 A2969 RMK A01 T02460038  RH  026%=      5-min Rain = 0
KANS 250210Z 15004KT 24/04 A297 RMK A01 T02440037  RH  027%=      5-min Rain = 0
KANS 250215Z 14005KT 24/04 A297 RMK A01 T02410037  RH  027%=      5-min Rain = 0
KANS 250220Z 16005KT 24/04 A297 RMK A01 T02370035  RH  027%=      5-min Rain = 0
KANS 250225Z 14004KT 24/03 A297 RMK A01 T02350034  RH  027%=      5-min Rain = 0
KANS 250230Z 14004KT 24/03 A297 RMK A01 T02350033  RH  027%=      5-min Rain = 0
KANS 250235Z 15003KT 23/03 A297 RMK A01 T02320033  RH  028%=      5-min Rain = 0
KANS 250240Z 15002KT 23/03 A2969 RMK A01 T02280033  RH  028%=      5-min Rain = 0
KANS 250245Z 18001KT 22/03 A2969 RMK A01 T02240032  RH  029%=      5-min Rain = 0
KANS 250250Z 23002KT 22/03 A2969 RMK A01 T02150034  RH  031%=      5-min Rain = 0
KANS 250255Z 25004KT 21/03 A2969 RMK A01 T02140033  RH  031%=      5-min Rain = 0
KANS 250300Z 24005KT 22/04 A2969 RMK A01 T02160035  RH  031%=      5-min Rain = 0
KANS 250305Z 22007KT 22/04 A2969 RMK A01 T02160042  RH  033%=      5-min Rain = 0
KANS 250310Z 22006KT 22/05 A2968 RMK A01 T02160045  RH  033%=      5-min Rain = 0
KANS 250315Z 22006KT 22/05 A2968 RMK A01 T02180045  RH  033%=      5-min Rain = 0
KANS 250320Z 22006KT 22/05 A2968 RMK A01 T02180045  RH  033%=      5-min Rain = 0
KANS 250325Z 22005KT 22/05 A2968 RMK A01 T02180046  RH  033%=      5-min Rain = 0
KANS 250330Z 23006KT 22/05 A2968 RMK A01 T02150049  RH  034%=      5-min Rain = 0
KANS 250335Z 23005KT 21/05 A2968 RMK A01 T02130051  RH  035%=      5-min Rain = 0
KANS 250340Z 22006KT 21/05 A2969 RMK A01 T02120052  RH  036%=      5-min Rain = 0
KANS 250345Z 19007KT 21/05 A2969 RMK A01 T02120048  RH  035%=      5-min Rain = 0
KANS 250350Z 19007KT 22/05 A2969 RMK A01 T02160048  RH  034%=      5-min Rain = 0
KANS 250355Z 18006KT 22/05 A2969 RMK A01 T02170049  RH  034%=      5-min Rain = 0
KANS 250400Z 18005KT 22/05 A2971 RMK A01 T02160050  RH  035%=      5-min Rain = 0
KANS 250405Z 15005KT 21/05 A2972 RMK A01 T02130050  RH  035%=      5-min Rain = 0
KANS 250410Z 13006KT 21/05 A2973 RMK A01 T02100050  RH  036%=      5-min Rain = 0
KANS 250415Z 12005KT 21/05 A2974 RMK A01 T02100051  RH  036%=      5-min Rain = 0
KANS 250420Z 09006KT 21/05 A2976 RMK A01 T02100052  RH  036%=      5-min Rain = 0
KANS 250425Z 08008KT 21/05 A2977 RMK A01 T02110051  RH  036%=      5-min Rain = 0
KANS 250430Z 08009KT 21/05 A2979 RMK A01 T02130051  RH  036%=      5-min Rain = 0
KANS 250435Z 07008KT 22/06 A298 RMK A01 T02180060  RH  037%=      5-min Rain = 0
KANS 250440Z 10006KT 22/06 A298 RMK A01 T02160063  RH  038%=      5-min Rain = 0
KANS 250445Z 13005KT 22/07 A298 RMK A01 T02150065  RH  039%=      5-min Rain = 0
KANS 250450Z 13004KT 21/06 A298 RMK A01 T02130062  RH  038%=      5-min Rain = 0
KANS 250455Z 12007KT 21/06 A298 RMK A01 T02110064  RH  039%=      5-min Rain = 0

Page generated in 0.0261 seconds.